createdAt,value
2023-06-16T00:08:00.264Z,0.00
2023-06-16T00:19:02.041Z,0.00
2023-06-16T00:30:03.771Z,0.00
2023-06-16T00:41:05.483Z,0.00
2023-06-16T00:52:07.177Z,0.00
2023-06-16T01:03:08.953Z,0.00
2023-06-16T01:14:10.612Z,0.00
2023-06-16T01:25:12.410Z,0.00
2023-06-16T01:36:14.072Z,0.00
2023-06-16T01:47:15.980Z,0.00
2023-06-16T01:58:17.518Z,0.00
2023-06-16T02:09:19.280Z,0.00
2023-06-16T02:20:21.239Z,0.00
2023-06-16T02:24:02.663Z,3.08
2023-06-16T02:27:44.263Z,2.09
2023-06-16T02:35:05.908Z,2.48
2023-06-16T02:46:07.660Z,0.00
2023-06-16T02:53:29.404Z,2.71
2023-06-16T02:57:11.250Z,3.57
2023-06-16T03:00:53.103Z,4.71
2023-06-16T03:04:34.780Z,2.51
2023-06-16T03:08:16.323Z,2.09
2023-06-16T03:11:57.954Z,2.09
2023-06-16T03:15:39.738Z,2.44
2023-06-16T03:26:41.484Z,0.00
2023-06-16T03:37:43.283Z,0.00
2023-06-16T03:48:45.028Z,0.00
2023-06-16T03:52:26.563Z,2.48
2023-06-16T03:56:08.147Z,2.09
2023-06-16T04:07:09.938Z,0.00
2023-06-16T04:18:11.642Z,0.00
2023-06-16T04:29:13.399Z,0.00
2023-06-16T04:40:15.184Z,0.00
2023-06-16T04:47:37.078Z,1.90
2023-06-16T04:54:58.642Z,3.31
2023-06-16T05:06:00.433Z,0.00
2023-06-16T05:13:22.029Z,2.09
2023-06-16T05:20:43.709Z,2.48
2023-06-16T05:24:25.376Z,2.48
2023-06-16T05:28:06.984Z,3.12
2023-06-16T05:31:49.570Z,2.48
2023-06-16T05:42:51.438Z,0.00
2023-06-16T05:53:54.116Z,0.00
2023-06-16T06:04:55.966Z,0.00
2023-06-16T06:15:57.623Z,1.70
2023-06-16T06:19:40.204Z,3.10
2023-06-16T06:30:42.008Z,0.00
2023-06-16T06:34:23.497Z,2.87
2023-06-16T06:38:05.072Z,2.86
2023-06-16T06:41:46.674Z,2.80
2023-06-16T06:45:28.230Z,2.48
2023-06-16T06:49:09.830Z,2.40
2023-06-16T06:52:51.400Z,2.75
2023-06-16T06:56:33.012Z,4.25
2023-06-16T07:00:14.588Z,2.09
2023-06-16T07:07:36.324Z,4.07
2023-06-16T07:11:17.950Z,3.02
2023-06-16T07:14:59.520Z,2.19
2023-06-16T07:18:41.091Z,1.90
2023-06-16T07:26:02.782Z,3.72
2023-06-16T07:29:44.340Z,2.09
2023-06-16T07:33:25.973Z,2.84
2023-06-16T07:37:07.635Z,4.41
2023-06-16T07:48:09.405Z,3.69
2023-06-16T07:51:50.946Z,2.29
2023-06-16T07:55:32.521Z,2.48
2023-06-16T08:02:55.301Z,3.42
2023-06-16T08:10:16.973Z,1.90
2023-06-16T08:21:18.583Z,1.70
2023-06-16T08:32:20.358Z,0.00
2023-06-16T08:43:22.026Z,0.00
2023-06-16T08:54:23.802Z,0.00
2023-06-16T09:01:45.554Z,2.89
2023-06-16T09:09:07.332Z,4.33
2023-06-16T09:16:29.046Z,2.77
2023-06-16T09:23:50.807Z,3.06
2023-06-16T09:27:32.539Z,5.05
2023-06-16T09:31:14.125Z,1.70
2023-06-16T09:34:55.859Z,4.67
2023-06-16T09:38:37.488Z,2.43
2023-06-16T09:42:19.057Z,2.96
2023-06-16T09:46:00.681Z,2.48
2023-06-16T09:49:42.334Z,4.03
2023-06-16T09:53:23.956Z,2.29
2023-06-16T09:57:05.559Z,4.70
2023-06-16T10:00:47.354Z,4.14
2023-06-16T10:04:28.957Z,3.33
2023-06-16T10:08:10.586Z,2.48
2023-06-16T10:11:52.285Z,5.37
2023-06-16T10:15:33.890Z,3.41
2023-06-16T10:19:15.656Z,3.02
2023-06-16T10:22:57.464Z,5.86
2023-06-16T10:26:39.169Z,5.07
2023-06-16T10:34:01.073Z,2.48
2023-06-16T10:37:42.709Z,4.11
2023-06-16T10:41:24.371Z,3.72
2023-06-16T10:45:06.032Z,4.41
2023-06-16T10:48:47.844Z,5.52
2023-06-16T10:52:29.525Z,2.35
2023-06-16T10:56:11.176Z,3.13
2023-06-16T10:59:52.810Z,2.62
2023-06-16T11:03:34.512Z,3.21
2023-06-16T11:14:37.809Z,2.48
2023-06-16T11:18:20.340Z,3.08
2023-06-16T11:22:02.021Z,3.88
2023-06-16T11:25:43.870Z,4.99
2023-06-16T11:29:25.604Z,4.18
2023-06-16T11:33:07.394Z,3.69
2023-06-16T11:36:51.173Z,3.07
2023-06-16T11:40:30.804Z,4.25
2023-06-16T11:44:12.381Z,2.48
2023-06-16T11:51:34.105Z,3.34
2023-06-16T11:55:15.744Z,3.57
2023-06-16T11:58:57.579Z,3.84
2023-06-16T12:02:39.305Z,5.30
2023-06-16T12:10:01.164Z,3.95
2023-06-16T12:13:42.841Z,5.09
2023-06-16T12:17:24.497Z,3.75
2023-06-16T12:21:06.174Z,3.64
2023-06-16T12:24:47.936Z,6.00
2023-06-16T12:28:29.641Z,4.56
2023-06-16T12:32:11.340Z,3.84
2023-06-16T12:35:53.075Z,4.75
2023-06-16T12:39:34.964Z,5.54
2023-06-16T12:43:16.696Z,3.71
2023-06-16T12:46:58.339Z,3.42
2023-06-16T12:50:40.047Z,4.85
2023-06-16T12:54:21.884Z,4.47
2023-06-16T12:58:03.576Z,3.55
2023-06-16T13:01:45.421Z,5.49
2023-06-16T13:05:27.228Z,5.13
2023-06-16T13:09:08.776Z,3.89
2023-06-16T13:12:50.599Z,6.31
2023-06-16T13:16:32.617Z,5.51
2023-06-16T13:20:14.393Z,7.45
2023-06-16T13:23:56.298Z,4.73
2023-06-16T13:27:38.021Z,6.23
2023-06-16T13:31:19.732Z,8.10
2023-06-16T13:35:01.625Z,5.78
2023-06-16T13:38:43.295Z,4.32
2023-06-16T13:42:25.118Z,5.16
2023-06-16T13:46:06.887Z,6.87
2023-06-16T13:49:48.663Z,4.29
2023-06-16T13:53:30.381Z,5.79
2023-06-16T13:57:12.098Z,5.91
2023-06-16T14:00:53.866Z,4.10
2023-06-16T14:04:35.495Z,4.96
2023-06-16T14:08:17.268Z,4.79
2023-06-16T14:11:59.041Z,5.81
2023-06-16T14:15:40.690Z,4.10
2023-06-16T14:19:22.520Z,4.40
2023-06-16T14:23:04.235Z,6.48
2023-06-16T14:26:45.893Z,4.72
2023-06-16T14:30:27.667Z,5.44
2023-06-16T14:34:09.396Z,4.37
2023-06-16T14:37:51.152Z,4.69
2023-06-16T14:41:33.006Z,6.64
2023-06-16T14:45:14.804Z,5.72
2023-06-16T14:48:56.648Z,5.50
2023-06-16T14:52:38.381Z,3.51
2023-06-16T14:56:20.214Z,4.98
2023-06-16T15:00:02.032Z,4.49
2023-06-16T15:03:43.902Z,6.14
2023-06-16T15:07:25.558Z,3.83
2023-06-16T15:11:07.273Z,3.97
2023-06-16T15:14:49.049Z,3.95
2023-06-16T15:18:30.624Z,2.81
2023-06-16T15:22:12.262Z,3.47
2023-06-16T15:25:54.000Z,5.35
2023-06-16T15:29:37.817Z,6.44
2023-06-16T15:33:19.485Z,3.99
2023-06-16T15:37:01.098Z,2.78
2023-06-16T15:40:42.987Z,4.61
2023-06-16T15:44:25.733Z,4.37
2023-06-16T15:48:07.541Z,4.45
2023-06-16T15:51:49.080Z,3.55
2023-06-16T15:55:30.719Z,2.95
2023-06-16T15:59:12.565Z,6.26
2023-06-16T16:02:54.482Z,5.35
2023-06-16T16:06:36.153Z,4.83
2023-06-16T16:10:18.099Z,3.72
2023-06-16T16:17:39.637Z,2.81
2023-06-16T16:25:01.255Z,3.15
2023-06-16T16:36:03.127Z,4.42
2023-06-16T16:39:44.743Z,3.46
2023-06-16T16:43:26.418Z,3.80
2023-06-16T16:47:08.071Z,2.68
2023-06-16T16:50:49.626Z,1.70
2023-06-16T16:58:11.349Z,2.45
2023-06-16T17:09:13.057Z,0.00
2023-06-16T17:20:14.822Z,0.00
2023-06-16T17:23:56.473Z,5.48
2023-06-16T17:27:56.823Z,3.90
2023-06-16T17:31:19.783Z,3.20
2023-06-16T17:35:01.500Z,2.93
2023-06-16T17:38:43.126Z,2.48
2023-06-16T17:42:24.684Z,3.78
2023-06-16T17:46:06.408Z,4.54
2023-06-16T17:49:48.068Z,3.70
2023-06-16T17:53:29.744Z,2.81
2023-06-16T17:57:11.467Z,2.16
2023-06-16T18:00:53.139Z,2.22
2023-06-16T18:04:35.911Z,3.25
2023-06-16T18:08:17.730Z,2.28
2023-06-16T18:19:19.653Z,0.00
2023-06-16T18:30:21.865Z,0.00
2023-06-16T18:41:23.658Z,0.00
2023-06-16T18:48:45.663Z,2.95
2023-06-16T18:52:27.596Z,3.54
2023-06-16T18:56:09.633Z,2.88
2023-06-16T18:59:51.633Z,2.22
2023-06-16T19:03:33.575Z,2.48
2023-06-16T19:14:35.495Z,3.63
2023-06-16T19:18:17.387Z,3.34
2023-06-16T19:21:59.195Z,2.48
2023-06-16T19:33:01.144Z,0.00
2023-06-16T19:44:02.803Z,3.42
2023-06-16T19:47:44.436Z,2.87
2023-06-16T19:51:25.927Z,2.28
2023-06-16T19:55:07.501Z,2.09
2023-06-16T19:58:49.049Z,1.70
2023-06-16T20:02:30.722Z,2.74
2023-06-16T20:13:32.378Z,0.00
2023-06-16T20:24:34.259Z,0.00
2023-06-16T20:35:35.847Z,2.09
2023-06-16T20:39:17.422Z,3.33
2023-06-16T20:42:59.052Z,2.26
2023-06-16T20:46:40.729Z,3.52
2023-06-16T20:50:22.715Z,3.19
2023-06-16T20:57:43.925Z,2.09
2023-06-16T21:05:05.634Z,2.36
2023-06-16T21:08:48.186Z,2.87
2023-06-16T21:12:29.770Z,2.29
2023-06-16T21:19:51.423Z,2.71
2023-06-16T21:30:53.175Z,0.00
2023-06-16T21:34:34.749Z,2.98
2023-06-16T21:38:16.357Z,3.25
2023-06-16T21:41:57.947Z,1.70
2023-06-16T21:52:59.724Z,0.00
2023-06-16T21:56:41.297Z,3.49
2023-06-16T22:00:23.099Z,2.83
2023-06-16T22:07:44.679Z,2.56
2023-06-16T22:18:46.554Z,3.09
2023-06-16T22:22:28.136Z,2.22
2023-06-16T22:26:09.760Z,3.43
2023-06-16T22:29:51.396Z,3.31
2023-06-16T22:33:33.035Z,3.50
2023-06-16T22:37:15.694Z,3.97
2023-06-16T22:40:56.286Z,1.99
2023-06-16T22:44:37.892Z,3.42
2023-06-16T22:48:19.448Z,2.74
2023-06-16T22:52:01.075Z,2.98
2023-06-16T22:59:22.773Z,3.13
2023-06-16T23:10:24.708Z,0.00
2023-06-16T23:17:46.199Z,2.75
2023-06-16T23:21:27.799Z,2.92
2023-06-16T23:25:09.379Z,1.96
2023-06-16T23:32:31.089Z,2.28
2023-06-16T23:43:32.807Z,0.00
2023-06-16T23:50:54.447Z,2.32
2023-06-16T23:54:36.100Z,5.85
2023-06-16T23:58:17.766Z,3.93
